North Conway, NH

10:38 PM EST on February 27, 2017 (GMT -0500)
Pine Street, North Conway, NH | | Change Station

Elev 534 ft 44.06 °N, 71.13 °W | Updated 16 seconds ago

Partly Cloudy
Partly Cloudy
39.7 °F
Feels Like 40 °F
N
1.2
Wind Variable Wind from ENE
Gusts 4.0 mph

Today
High -- | Low -- °F
--% Chance of Precip.
Yesterday
High -- | Low -- °F
Precip. -- in
Pressure 30.29 in
Visibility 10.0 miles
Clouds Overcast 8000 ft
Windchill 40 °F
Dew Point 26 °F
Humidity 57%
Rainfall 0.00 in
Snow Depth Not available.
6:24 AM 5:30 PM
Waxing Crescent, 3% visible
METAR KIZG 280254Z AUTO VRB04KT 10SM OVC080 06/M04 A3027 RMK AO2 SLP255 T00561044 51013
Pressure 30.29 in
Visibility 10.0 miles
Clouds Overcast 8000 ft
Windchill 40 °F
Dew Point 26 °F
Humidity 57%
Rainfall 0.00 in
Snow Depth Not available.
6:24 AM 5:30 PM
Waxing Crescent, 3% visible
METAR KIZG 280254Z AUTO VRB04KT 10SM OVC080 06/M04 A3027 RMK AO2 SLP255 T00561044 51013

Get Your Daily Forecast Email!

Thanks for signing up!

Be on the lookout for a verification email in your inbox.

You'll start receiving the daily forecast at 8 AM.

×

10-Day Weather Forecast

Almanac

Astronomy

Feb. 27, 2017 Rise Set
Actual Time
Civil Twilight
Nautical Twilight
Astronomical Twilight
Moon
Length of Visible Light
Length of Day
Tomorrow will be .
, % of the Moon is Illuminated

Today's Extremes

State Highs State Lows

Community

WunderPhotos

Upload Photos

1,962,540 photos uploaded!

WunderBlog® & News

Nearby

Air Quality

  Air Quality AQ Index Pollutant
Not available.

Snow Depth

Station Depth Elevation

Earthquake Activity

City Distance Mag. Time & Date
Minimum magnitude displayed is 2.5.

Coastal Water Temperatures

Place Temperature

Stations

Nearby Weather Stations

Station Location Temp. Windchill Dew Point Humidity Wind Precip. Elev Updated Type
                   

Watches & Warnings

There are currently no watches in effect.